Time;durP1;ratioP1;P1;durP2;ratioP2;P2;SDS_P1;SDS_P2;PMS_P1;PMS_P2;Temp;Humidity;BMP_temperature;BMP_pressure;BME280_temperature;BME280_humidity;BME280_pressure;Samples;Min_cycle;Max_cycle;Signal;HPM_P1;HPM_P2
2023/12/30 00:00:42;;;;;;;0.75;0.65;;;;;;;;;;5096556;28;20162;-80
2023/12/30 00:03:10;;;;;;;0.95;0.55;;;;;;;;;;5097631;28;20031;-81
2023/12/30 00:05:47;;;;;;;0.85;0.70;;;;;;;;;;5094710;28;20394;-79
2023/12/30 00:08:12;;;;;;;0.95;0.45;;;;;;;;;;5090497;28;20051;-79
2023/12/30 00:10:38;;;;;;;0.55;0.52;;;;;;;;;;5091123;28;20031;-79
2023/12/30 00:13:16;;;;;;;;;;;;;;;;;;;;;
2023/12/30 00:16:07;;;;;;;0.75;0.65;;;;;;;;;;5108997;28;20059;-79
2023/12/30 00:18:36;;;;;;;1.85;0.70;;;;;;;;;;5107795;28;20024;-78
2023/12/30 00:21:01;;;;;;;1.15;0.47;;;;;;;;;;5087951;28;20593;-80
2023/12/30 00:23:29;;;;;;;0.65;0.60;;;;;;;;;;5088465;28;20032;-80
2023/12/30 00:25:54;;;;;;;0.55;0.55;;;;;;;;;;5087622;28;20092;-80
2023/12/30 00:28:25;;;;;;;1.33;0.60;;;;;;;;;;5088625;28;20054;-79
2023/12/30 00:30:52;;;;;;;1.63;0.40;;;;;;;;;;5106867;28;20028;-79
2023/12/30 00:33:28;;;;;;;1.52;0.70;;;;;;;;;;5106154;28;20145;-80
2023/12/30 00:35:56;;;;;;;0.70;0.57;;;;;;;;;;5088147;28;20110;-79
2023/12/30 00:38:25;;;;;;;2.25;0.50;;;;;;;;;;5088481;28;20031;-80
2023/12/30 00:40:57;;;;;;;1.45;0.60;;;;;;;;;;5106817;28;20024;-80
2023/12/30 00:43:27;;;;;;;0.65;0.50;;;;;;;;;;5104821;28;20031;-79
2023/12/30 00:45:58;;;;;;;0.88;0.70;;;;;;;;;;5085848;28;20054;-80
2023/12/30 00:48:36;;;;;;;4.50;0.80;;;;;;;;;;5109277;28;20016;-80
2023/12/30 00:51:21;;;;;;;2.15;0.60;;;;;;;;;;5111596;28;20032;-80
2023/12/30 00:54:16;;;;;;;0.85;0.70;;;;;;;;;;5093499;28;20036;-81
2023/12/30 00:56:50;;;;;;;1.05;0.55;;;;;;;;;;5035598;28;20117;-80
2023/12/30 00:59:18;;;;;;;0.95;0.70;;;;;;;;;;5110814;28;20023;-80
2023/12/30 01:01:45;;;;;;;1.65;0.60;;;;;;;;;;5111034;28;20020;-80
2023/12/30 01:04:16;;;;;;;1.23;0.65;;;;;;;;;;5111330;28;20019;-82
2023/12/30 01:06:55;;;;;;;0.82;0.60;;;;;;;;;;5106701;28;20109;-80
2023/12/30 01:09:22;;;;;;;0.82;0.80;;;;;;;;;;5104632;28;20057;-79
2023/12/30 01:11:48;;;;;;;2.88;0.50;;;;;;;;;;5097501;28;20386;-81
2023/12/30 01:14:13;;;;;;;0.60;0.60;;;;;;;;;;5096901;28;20016;-80
2023/12/30 01:16:44;;;;;;;1.27;0.60;;;;;;;;;;5097195;28;20046;-81
2023/12/30 01:19:35;;;;;;;1.38;0.70;;;;;;;;;;5076170;28;20054;-80
2023/12/30 01:22:14;;;;;;;0.60;0.45;;;;;;;;;;5078122;28;20055;-80
2023/12/30 01:24:52;;;;;;;0.65;0.60;;;;;;;;;;5096295;28;20099;-80
2023/12/30 01:27:23;;;;;;;0.57;0.43;;;;;;;;;;5095934;28;20024;-81
2023/12/30 01:29:51;;;;;;;2.53;0.68;;;;;;;;;;5093011;28;20498;-80
2023/12/30 01:32:29;;;;;;;0.50;0.43;;;;;;;;;;5093829;28;20028;-80
2023/12/30 01:35:09;;;;;;;;;;;;;;;;;;;;;
2023/12/30 01:37:39;;;;;;;0.50;0.50;;;;;;;;;;5093728;28;20020;-80
2023/12/30 01:40:08;;;;;;;1.67;0.50;;;;;;;;;;5093066;28;20027;-81
2023/12/30 01:42:53;;;;;;;0.73;0.52;;;;;;;;;;5093699;28;20115;-80
2023/12/30 01:45:23;;;;;;;3.42;0.60;;;;;;;;;;5094503;28;20024;-81
2023/12/30 01:48:05;;;;;;;0.95;0.43;;;;;;;;;;5093029;28;20408;-80
2023/12/30 01:50:40;;;;;;;0.60;0.45;;;;;;;;;;5069707;28;20123;-79
2023/12/30 01:53:07;;;;;;;0.50;0.50;;;;;;;;;;5094355;28;20099;-79
2023/12/30 01:55:34;;;;;;;0.50;0.50;;;;;;;;;;5094469;28;20058;-80
2023/12/30 01:58:23;;;;;;;0.50;0.50;;;;;;;;;;5093969;28;20035;-79
2023/12/30 02:00:48;;;;;;;1.27;0.47;;;;;;;;;;5094103;28;20036;-80
2023/12/30 02:03:24;;;;;;;1.13;0.40;;;;;;;;;;5094903;28;20020;-80
2023/12/30 02:05:49;;;;;;;0.30;0.30;;;;;;;;;;5094456;28;20020;-82
2023/12/30 02:08:18;;;;;;;1.63;0.50;;;;;;;;;;5094504;28;20114;-80
2023/12/30 02:10:48;;;;;;;6.20;0.60;;;;;;;;;;5076822;28;20027;-80
2023/12/30 02:13:23;;;;;;;1.30;0.73;;;;;;;;;;5076914;28;20051;-80
2023/12/30 02:15:51;;;;;;;0.38;0.30;;;;;;;;;;5095128;28;20024;-78
2023/12/30 02:18:19;;;;;;;0.68;0.60;;;;;;;;;;5094711;28;20153;-80
2023/12/30 02:20:45;;;;;;;0.40;0.40;;;;;;;;;;5095296;28;20075;-80
2023/12/30 02:23:12;;;;;;;0.47;0.45;;;;;;;;;;5095011;28;20058;-80
2023/12/30 02:25:40;;;;;;;0.35;0.35;;;;;;;;;;5076727;28;20069;-80
2023/12/30 02:28:10;;;;;;;0.15;0.15;;;;;;;;;;5098165;28;20023;-80
2023/12/30 02:30:36;;;;;;;0.73;0.30;;;;;;;;;;5112962;28;20008;-80
2023/12/30 02:33:18;;;;;;;0.38;0.38;;;;;;;;;;5112760;28;20055;-80
2023/12/30 02:35:44;;;;;;;0.68;0.40;;;;;;;;;;5098351;28;20019;-81
2023/12/30 02:38:12;;;;;;;1.00;0.40;;;;;;;;;;5096065;28;20024;-80
2023/12/30 02:40:37;;;;;;;1.05;0.52;;;;;;;;;;5096459;28;20032;-81
2023/12/30 02:43:03;;;;;;;0.40;0.40;;;;;;;;;;5096217;28;20471;-81
2023/12/30 02:45:28;;;;;;;1.15;0.45;;;;;;;;;;5097956;28;20069;-81
2023/12/30 02:48:01;;;;;;;1.30;0.40;;;;;;;;;;5098340;28;20027;-79
2023/12/30 02:50:39;;;;;;;0.50;0.50;;;;;;;;;;5097073;28;20398;-81
2023/12/30 02:53:09;;;;;;;0.70;0.40;;;;;;;;;;5098402;28;20123;-81
2023/12/30 02:55:37;;;;;;;0.75;0.52;;;;;;;;;;5098400;28;20027;-81
2023/12/30 02:58:05;;;;;;;0.30;0.30;;;;;;;;;;5097847;28;20401;-80
2023/12/30 03:00:31;;;;;;;0.38;0.38;;;;;;;;;;5097919;28;20020;-79
2023/12/30 03:03:03;;;;;;;1.10;0.50;;;;;;;;;;5098367;28;20038;-80
2023/12/30 03:05:28;;;;;;;0.50;0.40;;;;;;;;;;5080260;28;20028;-80
2023/12/30 03:07:57;;;;;;;0.55;0.50;;;;;;;;;;5080237;28;20024;-81
2023/12/30 03:10:22;;;;;;;0.45;0.45;;;;;;;;;;5079929;28;20031;-80
2023/12/30 03:12:47;;;;;;;0.47;0.47;;;;;;;;;;5080005;28;20024;-81
2023/12/30 03:15:13;;;;;;;1.33;0.40;;;;;;;;;;5079806;28;20256;-81
2023/12/30 03:17:38;;;;;;;3.90;0.60;;;;;;;;;;5097827;28;20020;-80
2023/12/30 03:20:04;;;;;;;0.68;0.50;;;;;;;;;;5079380;28;20023;-80
2023/12/30 03:22:32;;;;;;;0.65;0.40;;;;;;;;;;5097545;28;20016;-80
2023/12/30 03:24:59;;;;;;;0.43;0.43;;;;;;;;;;5098247;28;20440;-80
2023/12/30 03:27:30;;;;;;;1.17;0.50;;;;;;;;;;5098017;28;20047;-80
2023/12/30 03:29:58;;;;;;;1.80;0.60;;;;;;;;;;5098111;28;20076;-80
2023/12/30 03:32:41;;;;;;;;;;;;;;;;;;;;;
2023/12/30 03:35:09;;;;;;;0.80;0.60;;;;;;;;;;5098704;28;20016;-81
2023/12/30 03:37:36;;;;;;;1.58;0.60;;;;;;;;;;5097854;28;20118;-80
2023/12/30 03:40:07;;;;;;;0.60;0.60;;;;;;;;;;5097620;28;20079;-80
2023/12/30 03:42:35;;;;;;;1.58;0.80;;;;;;;;;;5097365;28;20032;-81
2023/12/30 03:45:01;;;;;;;1.25;0.50;;;;;;;;;;5079319;28;20024;-80
2023/12/30 03:47:26;;;;;;;1.83;0.65;;;;;;;;;;5098325;28;20105;-81
2023/12/30 03:49:54;;;;;;;1.00;0.73;;;;;;;;;;5097283;28;20028;-80
2023/12/30 03:52:19;;;;;;;2.60;0.63;;;;;;;;;;5079555;28;20504;-81
2023/12/30 03:54:47;;;;;;;1.27;0.63;;;;;;;;;;5097472;28;20095;-80
2023/12/30 03:57:20;;;;;;;0.60;0.55;;;;;;;;;;5097012;28;20020;-81
2023/12/30 03:59:48;;;;;;;0.85;0.60;;;;;;;;;;5097762;28;20471;-80
2023/12/30 04:02:21;;;;;;;1.23;0.75;;;;;;;;;;5097596;28;20062;-81
2023/12/30 04:04:54;;;;;;;1.35;0.93;;;;;;;;;;5097123;28;20505;-80
2023/12/30 04:07:21;;;;;;;0.70;0.50;;;;;;;;;;5097518;28;20028;-80
2023/12/30 04:09:49;;;;;;;0.88;0.60;;;;;;;;;;5096941;28;20039;-80
2023/12/30 04:12:16;;;;;;;1.88;0.77;;;;;;;;;;5079688;28;20016;-80
2023/12/30 04:14:44;;;;;;;1.13;0.40;;;;;;;;;;5097395;28;20118;-80
2023/12/30 04:17:12;;;;;;;1.30;0.70;;;;;;;;;;5097275;28;20024;-80
2023/12/30 04:19:43;;;;;;;2.78;0.57;;;;;;;;;;5078699;28;20027;-81
2023/12/30 04:22:08;;;;;;;0.85;0.60;;;;;;;;;;5097259;28;20035;-80
2023/12/30 04:24:36;;;;;;;3.13;0.80;;;;;;;;;;5097242;28;20028;-80
2023/12/30 04:27:07;;;;;;;1.45;0.80;;;;;;;;;;5097633;28;20049;-80
2023/12/30 04:29:34;;;;;;;0.65;0.60;;;;;;;;;;5096965;28;20548;-81
2023/12/30 04:32:02;;;;;;;1.95;0.55;;;;;;;;;;5097053;28;20024;-81
2023/12/30 04:34:29;;;;;;;0.70;0.57;;;;;;;;;;5097082;28;20078;-80
2023/12/30 04:36:55;;;;;;;0.63;0.55;;;;;;;;;;5078261;28;20024;-80
2023/12/30 04:39:20;;;;;;;0.63;0.60;;;;;;;;;;5097125;28;20037;-80
2023/12/30 04:41:45;;;;;;;1.08;0.40;;;;;;;;;;5096863;28;20034;-80
2023/12/30 04:44:11;;;;;;;1.05;0.50;;;;;;;;;;5096606;28;20043;-80
2023/12/30 04:49:31;;;;;;;1.63;0.68;;;;;;;;;;5097306;28;20116;-80
2023/12/30 04:51:59;;;;;;;1.67;0.50;;;;;;;;;;5096805;28;20116;-80
2023/12/30 04:54:30;;;;;;;3.58;0.68;;;;;;;;;;5096632;28;20032;-80
2023/12/30 04:57:01;;;;;;;0.82;0.50;;;;;;;;;;5096830;28;20056;-80
2023/12/30 04:59:26;;;;;;;0.80;0.55;;;;;;;;;;5078247;28;20355;-80
2023/12/30 05:01:52;;;;;;;0.98;0.63;;;;;;;;;;5096457;28;20024;-80
2023/12/30 05:04:20;;;;;;;1.65;0.55;;;;;;;;;;5095955;28;20020;-79
2023/12/30 05:06:51;;;;;;;1.02;0.40;;;;;;;;;;5096252;28;20454;-80
2023/12/30 05:09:16;;;;;;;0.80;0.40;;;;;;;;;;5096372;28;20046;-78
2023/12/30 05:11:44;;;;;;;1.13;0.45;;;;;;;;;;5097116;28;20028;-80
2023/12/30 05:14:20;;;;;;;0.40;0.40;;;;;;;;;;5096932;28;20023;-81
2023/12/30 05:16:45;;;;;;;0.75;0.30;;;;;;;;;;5096898;28;20016;-79
2023/12/30 05:19:13;;;;;;;1.20;0.35;;;;;;;;;;5096597;28;20085;-80
2023/12/30 05:21:39;;;;;;;0.35;0.28;;;;;;;;;;5078058;28;20027;-80
2023/12/30 05:24:05;;;;;;;1.40;0.30;;;;;;;;;;5078235;28;20024;-80
2023/12/30 05:26:30;;;;;;;0.82;0.30;;;;;;;;;;5095675;28;20032;-80
2023/12/30 05:28:57;;;;;;;0.43;0.43;;;;;;;;;;5095826;28;20162;-80
2023/12/30 05:31:22;;;;;;;0.93;0.52;;;;;;;;;;5094592;28;20081;-80
2023/12/30 05:33:48;;;;;;;1.90;0.53;;;;;;;;;;5078447;28;20502;-80
2023/12/30 05:36:18;;;;;;;0.98;0.50;;;;;;;;;;5095684;28;20654;-80
2023/12/30 05:38:43;;;;;;;6.43;0.55;;;;;;;;;;5096687;28;20058;-80
2023/12/30 05:41:11;;;;;;;1.15;0.52;;;;;;;;;;5095915;28;20023;-80
2023/12/30 05:43:37;;;;;;;1.10;0.52;;;;;;;;;;5077893;28;20126;-81
2023/12/30 05:46:02;;;;;;;0.30;0.30;;;;;;;;;;5097949;28;20067;-80
2023/12/30 05:48:32;;;;;;;1.23;0.43;;;;;;;;;;5112865;28;20000;-79
2023/12/30 05:50:58;;;;;;;1.20;0.30;;;;;;;;;;5086188;28;20380;-79
2023/12/30 05:53:25;;;;;;;0.50;0.20;;;;;;;;;;5097542;28;20027;-80
2023/12/30 05:55:52;;;;;;;2.20;0.50;;;;;;;;;;5096912;28;20071;-80
2023/12/30 05:58:18;;;;;;;0.85;0.32;;;;;;;;;;5096594;28;20027;-79
2023/12/30 06:00:43;;;;;;;1.95;0.30;;;;;;;;;;5096170;28;20487;-81
2023/12/30 06:03:08;;;;;;;1.37;0.40;;;;;;;;;;5096248;28;20028;-80
2023/12/30 06:05:33;;;;;;;0.63;0.40;;;;;;;;;;5095804;28;20337;-79
2023/12/30 06:07:58;;;;;;;2.90;0.60;;;;;;;;;;5095119;28;20063;-80
2023/12/30 06:10:24;;;;;;;0.70;0.30;;;;;;;;;;5076885;28;20267;-79
2023/12/30 06:12:49;;;;;;;0.90;0.30;;;;;;;;;;5093893;28;20269;-80
2023/12/30 06:15:14;;;;;;;0.88;0.50;;;;;;;;;;5075507;28;20256;-79
2023/12/30 06:17:40;;;;;;;1.00;0.40;;;;;;;;;;5092267;28;20024;-80
2023/12/30 06:20:08;;;;;;;1.08;0.43;;;;;;;;;;5076769;28;20562;-81
2023/12/30 06:22:33;;;;;;;0.55;0.32;;;;;;;;;;5097356;28;20032;-80
2023/12/30 06:24:58;;;;;;;1.45;0.40;;;;;;;;;;5078343;28;20023;-79
2023/12/30 06:27:24;;;;;;;1.75;0.32;;;;;;;;;;5096567;28;20038;-81
2023/12/30 06:29:49;;;;;;;0.73;0.37;;;;;;;;;;5097493;28;20433;-78
2023/12/30 06:32:14;;;;;;;2.80;0.45;;;;;;;;;;5097286;28;20665;-80
2023/12/30 06:34:40;;;;;;;0.38;0.30;;;;;;;;;;5096444;28;20047;-80
2023/12/30 06:37:05;;;;;;;0.35;0.30;;;;;;;;;;5078791;28;20055;-79
2023/12/30 06:39:31;;;;;;;0.30;0.30;;;;;;;;;;5097136;28;20152;-80
2023/12/30 06:41:59;;;;;;;0.90;0.40;;;;;;;;;;5097280;28;20261;-80
2023/12/30 06:44:25;;;;;;;0.32;0.30;;;;;;;;;;5097438;28;20259;-80
2023/12/30 06:46:50;;;;;;;0.65;0.30;;;;;;;;;;5097690;28;20024;-79
2023/12/30 06:49:16;;;;;;;0.43;0.30;;;;;;;;;;5097900;28;20124;-80
2023/12/30 06:51:42;;;;;;;0.85;0.40;;;;;;;;;;5098303;28;20264;-80
2023/12/30 06:54:07;;;;;;;0.45;0.40;;;;;;;;;;5098263;28;20023;-80
2023/12/30 06:56:32;;;;;;;0.40;0.40;;;;;;;;;;5098490;28;20039;-79
2023/12/30 06:58:58;;;;;;;1.10;0.43;;;;;;;;;;5098259;28;20024;-80
2023/12/30 07:01:25;;;;;;;0.80;0.50;;;;;;;;;;5098404;28;20275;-80
2023/12/30 07:03:50;;;;;;;3.25;0.60;;;;;;;;;;5098203;28;20264;-80
2023/12/30 07:06:15;;;;;;;2.63;0.80;;;;;;;;;;5098328;28;20077;-79
2023/12/30 07:08:40;;;;;;;3.72;0.70;;;;;;;;;;5098154;28;20268;-80
2023/12/30 07:11:06;;;;;;;1.55;0.35;;;;;;;;;;5098114;28;20102;-80
2023/12/30 07:13:33;;;;;;;0.45;0.45;;;;;;;;;;5098556;28;20027;-80
2023/12/30 07:15:58;;;;;;;1.08;0.30;;;;;;;;;;5098552;28;20104;-80
2023/12/30 07:18:23;;;;;;;0.80;0.47;;;;;;;;;;5079742;28;20051;-80
2023/12/30 07:20:48;;;;;;;0.80;0.40;;;;;;;;;;5097900;28;20024;-79
2023/12/30 07:23:13;;;;;;;0.50;0.40;;;;;;;;;;5098524;28;20478;-78
2023/12/30 07:25:40;;;;;;;0.60;0.30;;;;;;;;;;5098182;28;20307;-80
2023/12/30 07:28:05;;;;;;;0.70;0.45;;;;;;;;;;5097863;28;20323;-80
2023/12/30 07:30:30;;;;;;;2.30;0.60;;;;;;;;;;5098703;28;20546;-81
2023/12/30 07:32:55;;;;;;;1.03;0.40;;;;;;;;;;5098074;28;20047;-80
2023/12/30 07:35:22;;;;;;;1.93;0.60;;;;;;;;;;5099113;28;20313;-80
2023/12/30 07:37:47;;;;;;;1.45;0.50;;;;;;;;;;5080873;28;20785;-81
2023/12/30 07:40:13;;;;;;;0.50;0.30;;;;;;;;;;5081063;28;20028;-79
2023/12/30 07:42:38;;;;;;;6.88;0.75;;;;;;;;;;5080910;28;20051;-80
2023/12/30 07:45:06;;;;;;;1.27;0.40;;;;;;;;;;5099036;28;20024;-79
2023/12/30 07:47:32;;;;;;;2.10;0.77;;;;;;;;;;5099341;28;20040;-81
2023/12/30 07:49:57;;;;;;;2.83;0.40;;;;;;;;;;5099815;28;20027;-81
2023/12/30 07:52:22;;;;;;;1.63;0.50;;;;;;;;;;5080094;28;20039;-81
2023/12/30 07:54:48;;;;;;;0.35;0.30;;;;;;;;;;5099206;28;20245;-81
2023/12/30 07:57:13;;;;;;;0.88;0.30;;;;;;;;;;5099361;28;20102;-81
2023/12/30 07:59:39;;;;;;;0.50;0.35;;;;;;;;;;5098433;28;20028;-80
2023/12/30 08:02:04;;;;;;;1.17;0.50;;;;;;;;;;5098279;28;20030;-79
2023/12/30 08:04:30;;;;;;;1.53;0.50;;;;;;;;;;5098426;28;20410;-80
2023/12/30 08:06:55;;;;;;;0.97;0.40;;;;;;;;;;5097906;28;20682;-80
2023/12/30 08:09:22;;;;;;;1.55;0.50;;;;;;;;;;5079813;28;20664;-80
2023/12/30 08:11:48;;;;;;;1.13;0.65;;;;;;;;;;5097746;28;20028;-80
2023/12/30 08:14:13;;;;;;;1.77;0.50;;;;;;;;;;5098083;28;20603;-80
2023/12/30 08:16:38;;;;;;;0.93;0.50;;;;;;;;;;5097193;28;20073;-79
2023/12/30 08:19:04;;;;;;;2.90;0.60;;;;;;;;;;5097501;28;20024;-79
2023/12/30 08:21:32;;;;;;;1.08;0.60;;;;;;;;;;5097808;28;20099;-80
2023/12/30 08:23:58;;;;;;;1.30;0.45;;;;;;;;;;5097289;28;20046;-81
2023/12/30 08:26:24;;;;;;;1.15;0.43;;;;;;;;;;5097542;28;20059;-81
2023/12/30 08:28:51;;;;;;;1.40;0.63;;;;;;;;;;5097986;28;20043;-81
2023/12/30 08:31:16;;;;;;;1.20;0.57;;;;;;;;;;5097836;28;20091;-80
2023/12/30 08:33:41;;;;;;;1.00;0.40;;;;;;;;;;5079915;28;20040;-80
2023/12/30 08:36:06;;;;;;;1.00;0.50;;;;;;;;;;5098104;28;20028;-80
2023/12/30 08:38:32;;;;;;;0.95;0.52;;;;;;;;;;5080180;28;20466;-80
2023/12/30 08:40:58;;;;;;;2.10;0.60;;;;;;;;;;5098112;28;20025;-81
2023/12/30 08:43:24;;;;;;;4.82;0.70;;;;;;;;;;5098088;28;20016;-81
2023/12/30 08:45:49;;;;;;;1.47;0.60;;;;;;;;;;5098120;28;20128;-81
2023/12/30 08:48:14;;;;;;;1.15;0.50;;;;;;;;;;5097108;28;20288;-80
2023/12/30 08:50:41;;;;;;;0.90;0.60;;;;;;;;;;5078378;28;20048;-80
2023/12/30 08:53:06;;;;;;;3.55;0.70;;;;;;;;;;5097657;28;20034;-80
2023/12/30 08:55:31;;;;;;;4.22;1.08;;;;;;;;;;5097315;28;20065;-80
2023/12/30 08:57:57;;;;;;;1.20;0.53;;;;;;;;;;5097287;28;20028;-80
2023/12/30 09:00:22;;;;;;;3.03;0.73;;;;;;;;;;5097092;28;20265;-80
2023/12/30 09:02:48;;;;;;;2.40;0.50;;;;;;;;;;5097984;28;20249;-81
2023/12/30 09:05:18;;;;;;;1.15;0.40;;;;;;;;;;5106761;28;20035;-79
2023/12/30 09:07:44;;;;;;;1.13;0.60;;;;;;;;;;5114259;28;20035;-80
2023/12/30 09:10:09;;;;;;;2.65;0.70;;;;;;;;;;5110628;28;20429;-80
2023/12/30 09:12:34;;;;;;;1.55;0.63;;;;;;;;;;5097649;28;20403;-80
2023/12/30 09:14:59;;;;;;;1.97;0.70;;;;;;;;;;5080013;28;20535;-80
2023/12/30 09:17:25;;;;;;;4.50;0.80;;;;;;;;;;5097330;28;20756;-80
2023/12/30 09:19:50;;;;;;;1.90;0.60;;;;;;;;;;5096976;28;20732;-80
2023/12/30 09:22:16;;;;;;;0.88;0.55;;;;;;;;;;5097147;28;20263;-79
2023/12/30 09:24:41;;;;;;;2.63;0.57;;;;;;;;;;5097436;28;20027;-79
2023/12/30 09:27:08;;;;;;;1.52;0.68;;;;;;;;;;5096717;28;20032;-80
2023/12/30 09:29:33;;;;;;;1.45;0.52;;;;;;;;;;5078739;28;20039;-80
2023/12/30 09:31:58;;;;;;;2.53;0.75;;;;;;;;;;5078075;28;20019;-80
2023/12/30 09:34:24;;;;;;;2.20;0.50;;;;;;;;;;5096095;28;20031;-79
2023/12/30 09:36:49;;;;;;;1.80;0.50;;;;;;;;;;5095256;28;20047;-80
2023/12/30 09:39:14;;;;;;;0.70;0.50;;;;;;;;;;5095840;28;20286;-80
2023/12/30 09:41:40;;;;;;;2.00;0.63;;;;;;;;;;5096321;28;20024;-80
2023/12/30 09:44:06;;;;;;;1.65;0.60;;;;;;;;;;5078055;28;20487;-80
2023/12/30 09:46:35;;;;;;;0.98;0.50;;;;;;;;;;5096545;28;20030;-81
2023/12/30 09:49:02;;;;;;;1.02;0.60;;;;;;;;;;5097251;28;20402;-81
2023/12/30 09:51:29;;;;;;;1.05;0.52;;;;;;;;;;5096122;28;20051;-80
2023/12/30 09:53:55;;;;;;;3.28;0.80;;;;;;;;;;5096024;28;20099;-80
2023/12/30 09:56:22;;;;;;;2.78;0.57;;;;;;;;;;5096654;28;20089;-80
2023/12/30 09:58:47;;;;;;;2.75;0.65;;;;;;;;;;5096279;28;20036;-81
2023/12/30 10:01:13;;;;;;;1.75;0.75;;;;;;;;;;5078129;28;20066;-80
2023/12/30 10:03:39;;;;;;;0.90;0.50;;;;;;;;;;5078595;28;20070;-80
2023/12/30 10:06:07;;;;;;;1.95;0.55;;;;;;;;;;5096304;28;20070;-80
2023/12/30 10:08:32;;;;;;;2.03;0.70;;;;;;;;;;5095716;28;20012;-81
2023/12/30 10:10:57;;;;;;;2.30;0.80;;;;;;;;;;5096301;28;20038;-81
2023/12/30 10:13:26;;;;;;;3.28;0.90;;;;;;;;;;5078661;28;20348;-80
2023/12/30 10:15:52;;;;;;;2.17;0.75;;;;;;;;;;5078218;28;20020;-80
2023/12/30 10:18:18;;;;;;;2.58;1.00;;;;;;;;;;5097061;28;20020;-80
2023/12/30 10:20:45;;;;;;;2.53;0.88;;;;;;;;;;5097261;28;20077;-82
2023/12/30 10:23:10;;;;;;;2.05;0.73;;;;;;;;;;5096608;28;20026;-80
2023/12/30 10:25:35;;;;;;;3.45;0.80;;;;;;;;;;5078206;28;20371;-80
2023/12/30 10:28:01;;;;;;;1.80;0.70;;;;;;;;;;5095803;28;20028;-80
2023/12/30 10:30:28;;;;;;;2.40;0.65;;;;;;;;;;5078373;28;20024;-80
2023/12/30 10:33:07;;;;;;;1.92;0.80;;;;;;;;;;5097529;28;20046;-81
2023/12/30 10:35:33;;;;;;;2.47;0.77;;;;;;;;;;5080864;28;20062;-80
2023/12/30 10:38:00;;;;;;;3.35;0.82;;;;;;;;;;5098559;28;20028;-81
2023/12/30 10:40:26;;;;;;;3.83;0.90;;;;;;;;;;5082542;28;20024;-81
2023/12/30 10:42:52;;;;;;;3.05;0.93;;;;;;;;;;5100240;28;20529;-81
2023/12/30 10:45:17;;;;;;;5.85;0.70;;;;;;;;;;5099176;28;20380;-80
2023/12/30 10:47:43;;;;;;;5.53;0.90;;;;;;;;;;5098503;28;20032;-80
2023/12/30 10:50:09;;;;;;;3.10;0.80;;;;;;;;;;5098873;28;20749;-80
2023/12/30 10:52:38;;;;;;;4.50;0.80;;;;;;;;;;5098008;28;20028;-80
2023/12/30 10:55:16;;;;;;;4.20;0.80;;;;;;;;;;5098110;28;20027;-79
2023/12/30 10:57:50;;;;;;;1.75;0.60;;;;;;;;;;5080005;28;20023;-80
2023/12/30 11:00:20;;;;;;;2.45;0.70;;;;;;;;;;5098947;28;20052;-80
2023/12/30 11:02:47;;;;;;;0.93;0.65;;;;;;;;;;5096403;28;20043;-82
2023/12/30 11:05:21;;;;;;;4.30;0.75;;;;;;;;;;5095063;28;20028;-80
2023/12/30 11:07:46;;;;;;;1.80;0.57;;;;;;;;;;5083072;28;20127;-80
2023/12/30 11:10:21;;;;;;;1.55;0.60;;;;;;;;;;5101058;28;20069;-80
2023/12/30 11:12:46;;;;;;;1.48;0.60;;;;;;;;;;5099295;28;20080;-80
2023/12/30 11:15:31;;;;;;;2.35;0.88;;;;;;;;;;5065203;28;20035;-80
2023/12/30 11:17:58;;;;;;;2.05;0.50;;;;;;;;;;5081215;28;20031;-81
2023/12/30 11:20:31;;;;;;;3.13;0.80;;;;;;;;;;5097348;28;20056;-81
2023/12/30 11:22:59;;;;;;;1.02;0.50;;;;;;;;;;5097768;28;20020;-79
2023/12/30 11:25:42;;;;;;;0.88;0.40;;;;;;;;;;5080662;28;20024;-80
2023/12/30 11:28:25;;;;;;;2.50;0.40;;;;;;;;;;5099911;28;20035;-81
2023/12/30 11:30:59;;;;;;;1.25;0.45;;;;;;;;;;5082251;28;20027;-80
2023/12/30 11:33:24;;;;;;;0.47;0.40;;;;;;;;;;5099979;28;20019;-80
2023/12/30 11:35:54;;;;;;;1.45;0.50;;;;;;;;;;5081831;28;20031;-81
2023/12/30 11:38:20;;;;;;;1.90;0.55;;;;;;;;;;5081896;28;20368;-81
2023/12/30 11:40:51;;;;;;;1.05;0.35;;;;;;;;;;5099738;28;20536;-81
2023/12/30 11:43:17;;;;;;;2.58;0.43;;;;;;;;;;5100453;28;20019;-81
2023/12/30 11:45:42;;;;;;;1.83;0.43;;;;;;;;;;5100769;28;20024;-81
2023/12/30 11:48:07;;;;;;;0.63;0.30;;;;;;;;;;5100540;28;20026;-81
2023/12/30 11:50:33;;;;;;;1.92;0.52;;;;;;;;;;5100370;28;20265;-80
2023/12/30 11:53:00;;;;;;;0.75;0.40;;;;;;;;;;5082770;28;20032;-81
2023/12/30 11:55:26;;;;;;;0.50;0.38;;;;;;;;;;5100720;28;20047;-80
2023/12/30 11:57:51;;;;;;;3.47;0.60;;;;;;;;;;5100334;28;20054;-80
2023/12/30 12:00:17;;;;;;;0.43;0.25;;;;;;;;;;5099589;28;20020;-78
2023/12/30 12:02:42;;;;;;;1.02;0.35;;;;;;;;;;5099770;28;20024;-79
2023/12/30 12:05:07;;;;;;;1.23;0.47;;;;;;;;;;5099300;28;20045;-80
2023/12/30 12:07:34;;;;;;;2.22;0.30;;;;;;;;;;5099362;28;20308;-81
2023/12/30 12:09:59;;;;;;;1.13;0.63;;;;;;;;;;5100094;28;20027;-79
2023/12/30 12:12:25;;;;;;;1.42;0.40;;;;;;;;;;5100067;28;20028;-80
2023/12/30 12:14:51;;;;;;;1.17;0.55;;;;;;;;;;5082697;28;20031;-82
2023/12/30 12:17:20;;;;;;;1.63;0.30;;;;;;;;;;5098930;28;20394;-80
2023/12/30 12:19:46;;;;;;;2.20;0.30;;;;;;;;;;5081969;28;20028;-80
2023/12/30 12:22:13;;;;;;;1.13;0.40;;;;;;;;;;5102129;28;20032;-78
2023/12/30 12:24:39;;;;;;;0.63;0.38;;;;;;;;;;5115321;28;20008;-80
2023/12/30 12:27:04;;;;;;;5.22;0.50;;;;;;;;;;5115326;28;20083;-81
2023/12/30 12:29:29;;;;;;;2.80;0.50;;;;;;;;;;5104017;28;20032;-80
2023/12/30 12:31:55;;;;;;;1.30;0.37;;;;;;;;;;5100026;28;20024;-81
2023/12/30 12:34:22;;;;;;;1.23;0.45;;;;;;;;;;5082479;28;20256;-81
2023/12/30 12:36:47;;;;;;;1.30;0.30;;;;;;;;;;5082189;28;20027;-81
2023/12/30 12:39:13;;;;;;;1.10;0.40;;;;;;;;;;5099894;28;20024;-81
2023/12/30 12:41:38;;;;;;;1.85;0.35;;;;;;;;;;5081825;28;20032;-81
2023/12/30 12:44:04;;;;;;;1.17;0.40;;;;;;;;;;5099817;28;20023;-81
2023/12/30 12:46:29;;;;;;;3.58;0.47;;;;;;;;;;5099647;28;20639;-80
2023/12/30 12:48:55;;;;;;;2.35;0.60;;;;;;;;;;5099601;28;20016;-80
2023/12/30 12:51:21;;;;;;;3.25;0.65;;;;;;;;;;5100572;28;20024;-80
2023/12/30 12:53:46;;;;;;;3.53;0.50;;;;;;;;;;5120976;28;20098;-81
2023/12/30 12:56:12;;;;;;;1.90;0.60;;;;;;;;;;5119138;28;20039;-80
2023/12/30 12:58:37;;;;;;;1.60;0.70;;;;;;;;;;5119397;28;20252;-80
2023/12/30 13:01:03;;;;;;;1.08;0.60;;;;;;;;;;5119048;28;20256;-80
2023/12/30 13:03:28;;;;;;;2.28;0.50;;;;;;;;;;5101994;28;20015;-81
2023/12/30 13:05:54;;;;;;;1.42;0.40;;;;;;;;;;5120934;28;20027;-81
2023/12/30 13:08:20;;;;;;;1.85;0.50;;;;;;;;;;5120835;28;20029;-81
2023/12/30 13:10:48;;;;;;;1.35;0.50;;;;;;;;;;5101705;28;20023;-80
2023/12/30 13:13:13;;;;;;;2.15;0.65;;;;;;;;;;5102950;28;20036;-80
2023/12/30 13:15:39;;;;;;;2.20;0.90;;;;;;;;;;5101813;28;20016;-80
2023/12/30 13:18:07;;;;;;;1.63;0.65;;;;;;;;;;5117952;28;20097;-80
2023/12/30 13:20:33;;;;;;;1.95;0.60;;;;;;;;;;5099417;28;20406;-79
2023/12/30 13:23:02;;;;;;;3.85;0.77;;;;;;;;;;5117616;28;20024;-80
2023/12/30 13:25:28;;;;;;;2.17;0.50;;;;;;;;;;5117469;28;20497;-80
2023/12/30 13:27:53;;;;;;;1.67;0.50;;;;;;;;;;5117381;28;20027;-79
2023/12/30 13:30:22;;;;;;;1.77;0.60;;;;;;;;;;5116606;28;20054;-80
2023/12/30 13:32:48;;;;;;;4.07;0.80;;;;;;;;;;5098574;28;20045;-81
2023/12/30 13:35:13;;;;;;;4.18;0.70;;;;;;;;;;5117094;28;20437;-80
2023/12/30 13:37:40;;;;;;;2.13;0.70;;;;;;;;;;5098535;28;20016;-80
2023/12/30 13:40:10;;;;;;;6.43;0.80;;;;;;;;;;5117539;28;20122;-80
2023/12/30 13:42:36;;;;;;;3.13;0.90;;;;;;;;;;5117406;28;20124;-80
2023/12/30 13:45:03;;;;;;;1.55;0.68;;;;;;;;;;5116857;28;20035;-80
2023/12/30 13:52:36;;;;;;;3.30;0.75;;;;;;;;;;5117523;28;20032;-80
2023/12/30 13:55:01;;;;;;;1.90;0.70;;;;;;;;;;5099679;28;20475;-80
2023/12/30 13:57:29;;;;;;;1.45;0.60;;;;;;;;;;5099152;28;20033;-80
2023/12/30 13:59:54;;;;;;;2.90;1.00;;;;;;;;;;5117262;28;20440;-81
2023/12/30 14:02:23;;;;;;;3.28;0.60;;;;;;;;;;5117957;28;20028;-80
2023/12/30 14:04:56;;;;;;;2.80;0.90;;;;;;;;;;5117871;28;20030;-82
2023/12/30 14:07:29;;;;;;;2.30;0.82;;;;;;;;;;5117944;28;20030;-80
2023/12/30 14:09:55;;;;;;;1.02;0.57;;;;;;;;;;5118059;28;20483;-81
2023/12/30 14:12:23;;;;;;;2.72;0.80;;;;;;;;;;5099930;28;20027;-80
2023/12/30 14:14:56;;;;;;;4.90;1.00;;;;;;;;;;5118144;28;20023;-80
2023/12/30 14:17:23;;;;;;;3.38;1.15;;;;;;;;;;5117262;28;20414;-81
2023/12/30 14:19:49;;;;;;;1.90;1.00;;;;;;;;;;5117638;28;20036;-80
2023/12/30 14:22:15;;;;;;;3.40;1.10;;;;;;;;;;5117816;28;20475;-82
2023/12/30 14:24:41;;;;;;;3.00;1.20;;;;;;;;;;5099329;28;20027;-81
2023/12/30 14:27:06;;;;;;;4.70;0.93;;;;;;;;;;5118238;28;20048;-81
2023/12/30 14:29:31;;;;;;;3.90;1.17;;;;;;;;;;5099216;28;20256;-81
2023/12/30 14:31:57;;;;;;;2.17;0.88;;;;;;;;;;5116500;28;20045;-80
2023/12/30 14:34:22;;;;;;;5.22;1.30;;;;;;;;;;5116882;28;20039;-81
2023/12/30 14:36:47;;;;;;;3.28;1.13;;;;;;;;;;5117004;28;20035;-81
2023/12/30 14:39:15;;;;;;;2.45;1.30;;;;;;;;;;5117390;28;20024;-80
2023/12/30 14:41:40;;;;;;;5.03;1.35;;;;;;;;;;5119122;28;20030;-80
2023/12/30 14:44:06;;;;;;;2.58;1.10;;;;;;;;;;5121145;28;20556;-81
2023/12/30 14:46:31;;;;;;;2.83;1.23;;;;;;;;;;5121234;28;20040;-81
2023/12/30 14:48:57;;;;;;;2.67;1.17;;;;;;;;;;5102737;28;20258;-80
2023/12/30 14:51:23;;;;;;;3.97;1.20;;;;;;;;;;5102670;28;20027;-80
2023/12/30 14:53:48;;;;;;;3.73;1.10;;;;;;;;;;5122088;28;20032;-81
2023/12/30 14:56:14;;;;;;;7.23;1.53;;;;;;;;;;5121058;28;20244;-80